Time;durP1;ratioP1;P1;durP2;ratioP2;P2;SDS_P1;SDS_P2;PMS_P1;PMS_P2;Temp;Humidity;BMP_temperature;BMP_pressure;BME280_temperature;BME280_humidity;BME280_pressure;Samples;Min_cycle;Max_cycle;Signal;HPM_P1;HPM_P2
2022/09/08 00:02:13;;;;;;;;;;;23.50;61.90;;;;;;6246860;28;19994;-40
2022/09/08 00:05:18;;;;;;;;;;;24.00;62.10;;;;;;6246251;28;19933;-40
2022/09/08 00:08:20;;;;;;;;;;;24.00;62.10;;;;;;6246985;28;19933;-42
2022/09/08 00:11:23;;;;;;;;;;;24.00;62.10;;;;;;6249989;28;19932;-39
2022/09/08 00:14:25;;;;;;;;;;;23.60;61.90;;;;;;6247666;28;20692;-41
2022/09/08 00:17:27;;;;;;;;;;;24.00;62.20;;;;;;6248133;28;20019;-43
2022/09/08 00:20:29;;;;;;;;;;;23.70;62.00;;;;;;6248445;28;20725;-39
2022/09/08 00:23:31;;;;;;;;;;;23.70;62.10;;;;;;6244575;28;20800;-40
2022/09/08 00:26:32;;;;;;;;;;;23.60;61.90;;;;;;6241426;28;20038;-40
2022/09/08 00:29:33;;;;;;;;;;;23.90;62.30;;;;;;6245419;28;19932;-39
2022/09/08 00:32:35;;;;;;;;;;;24.00;62.20;;;;;;6243211;28;19975;-40
2022/09/08 00:35:41;;;;;;;;;;;23.80;62.10;;;;;;6243546;28;19935;-40
2022/09/08 00:38:49;;;;;;;;;;;24.10;62.00;;;;;;6249182;28;20074;-40
2022/09/08 00:41:50;;;;;;;;;;;23.60;62.00;;;;;;6247600;28;19928;-40
2022/09/08 00:44:53;;;;;;;;;;;23.70;62.00;;;;;;6247327;28;19932;-40
2022/09/08 00:47:57;;;;;;;;;;;23.90;62.20;;;;;;6250370;28;19944;-42
2022/09/08 00:50:59;;;;;;;;;;;23.60;62.00;;;;;;6251799;28;19946;-41
2022/09/08 00:54:01;;;;;;;;;;;23.50;62.00;;;;;;6236679;28;19928;-40
2022/09/08 00:57:03;;;;;;;;;;;23.90;62.20;;;;;;6250975;28;20031;-39
2022/09/08 01:00:05;;;;;;;;;;;24.90;62.70;;;;;;6248908;28;20686;-40
2022/09/08 01:03:07;;;;;;;;;;;23.50;61.90;;;;;;6235754;28;19994;-40
2022/09/08 01:06:15;;;;;;;;;;;23.60;62.00;;;;;;6251706;28;20043;-40
2022/09/08 01:15:52;;;;;;;;;;;23.50;62.00;;;;;;6234627;28;20342;-41
2022/09/08 01:18:56;;;;;;;;;;;23.80;62.00;;;;;;6254786;28;19957;-42
2022/09/08 01:22:04;;;;;;;;;;;23.50;61.90;;;;;;6254375;28;19924;-40
2022/09/08 01:25:16;;;;;;;;;;;23.50;61.90;;;;;;6244321;28;20146;-39
2022/09/08 01:28:22;;;;;;;;;;;23.50;62.00;;;;;;6240833;28;20352;-41
2022/09/08 01:31:24;;;;;;;;;;;23.80;62.10;;;;;;6242152;28;19948;-42
2022/09/08 01:34:25;;;;;;;;;;;23.50;62.00;;;;;;6239143;28;20317;-40
2022/09/08 01:37:27;;;;;;;;;;;23.60;62.20;;;;;;6239241;28;20339;-41
2022/09/08 01:40:28;;;;;;;;;;;23.90;61.80;;;;;;6245775;28;20467;-42
2022/09/08 01:43:30;;;;;;;;;;;23.40;62.00;;;;;;6245734;28;20223;-40
2022/09/08 01:46:31;;;;;;;;;;;23.60;62.10;;;;;;6241871;28;19936;-39
2022/09/08 01:49:32;;;;;;;;;;;23.80;62.10;;;;;;6245527;28;19954;-39
2022/09/08 01:52:34;;;;;;;;;;;23.60;62.30;;;;;;6244702;28;20711;-42
2022/09/08 01:55:35;;;;;;;;;;;23.80;62.20;;;;;;6243226;28;19936;-40
2022/09/08 01:58:37;;;;;;;;;;;23.40;62.10;;;;;;6249171;28;20236;-39
2022/09/08 02:01:38;;;;;;;;;;;23.30;61.80;;;;;;6246815;28;19975;-42
2022/09/08 02:04:40;;;;;;;;;;;23.80;62.20;;;;;;6245649;28;20419;-39
2022/09/08 02:07:41;;;;;;;;;;;23.40;61.90;;;;;;6243162;28;20127;-41
2022/09/08 02:10:51;;;;;;;;;;;23.90;62.30;;;;;;6243118;28;20335;-39
2022/09/08 02:13:53;;;;;;;;;;;23.80;62.80;;;;;;6225549;28;19928;-41
2022/09/08 02:16:54;;;;;;;;;;;23.40;61.90;;;;;;6240598;28;20042;-40
2022/09/08 02:19:55;;;;;;;;;;;23.40;61.80;;;;;;6245311;28;20037;-41
2022/09/08 02:22:57;;;;;;;;;;;23.40;62.00;;;;;;6245864;28;20282;-39
2022/09/08 02:25:58;;;;;;;;;;;23.40;62.00;;;;;;6247979;28;21628;-38
2022/09/08 02:29:00;;;;;;;;;;;23.40;62.00;;;;;;6242202;28;19932;-40
2022/09/08 02:32:01;;;;;;;;;;;23.70;62.10;;;;;;6249328;28;20039;-40
2022/09/08 02:35:03;;;;;;;;;;;23.40;61.90;;;;;;6257522;28;19932;-39
2022/09/08 02:38:04;;;;;;;;;;;23.60;61.90;;;;;;6253358;28;21146;-40
2022/09/08 02:41:07;;;;;;;;;;;23.80;62.90;;;;;;6256662;28;19939;-43
2022/09/08 02:44:09;;;;;;;;;;;23.50;62.00;;;;;;6254658;28;19938;-39
2022/09/08 02:47:10;;;;;;;;;;;23.40;62.00;;;;;;6253934;28;20842;-41
2022/09/08 02:50:12;;;;;;;;;;;23.50;61.90;;;;;;6255631;28;20027;-42
2022/09/08 02:53:14;;;;;;;;;;;23.40;62.00;;;;;;6256016;28;20869;-43
2022/09/08 02:56:15;;;;;;;;;;;23.60;62.20;;;;;;6258144;28;19943;-40
2022/09/08 02:59:17;;;;;;;;;;;23.40;62.10;;;;;;6240924;28;20065;-40
2022/09/08 03:02:18;;;;;;;;;;;23.80;62.30;;;;;;6256389;28;20772;-39
2022/09/08 03:05:20;;;;;;;;;;;23.80;62.30;;;;;;6257740;28;21206;-39
2022/09/08 03:08:21;;;;;;;;;;;23.50;62.10;;;;;;6255974;28;20005;-41
2022/09/08 03:11:23;;;;;;;;;;;23.40;62.00;;;;;;6240004;28;20975;-40
2022/09/08 03:14:25;;;;;;;;;;;23.50;62.00;;;;;;6256045;28;20917;-39
2022/09/08 03:17:29;;;;;;;;;;;23.50;62.10;;;;;;6258089;28;19938;-43
2022/09/08 03:20:31;;;;;;;;;;;23.60;62.10;;;;;;6259436;28;20172;-40
2022/09/08 03:23:36;;;;;;;;;;;24.00;62.30;;;;;;6237619;28;20611;-40
2022/09/08 03:26:37;;;;;;;;;;;23.60;62.10;;;;;;6238390;28;20036;-41
2022/09/08 03:29:39;;;;;;;;;;;23.20;62.00;;;;;;6254377;28;19936;-39
2022/09/08 03:32:45;;;;;;;;;;;23.80;62.30;;;;;;6251685;28;19932;-40
2022/09/08 03:35:47;;;;;;;;;;;23.70;62.20;;;;;;6227341;28;20059;-40
2022/09/08 03:38:48;;;;;;;;;;;23.70;62.20;;;;;;6254934;28;19932;-38
2022/09/08 03:41:49;;;;;;;;;;;23.40;62.00;;;;;;6253961;28;19967;-39
2022/09/08 03:44:51;;;;;;;;;;;23.60;62.00;;;;;;6247833;28;20846;-40
2022/09/08 03:47:56;;;;;;;;;;;23.50;61.90;;;;;;6246111;28;20068;-39
2022/09/08 03:51:06;;;;;;;;;;;23.80;62.20;;;;;;6247295;28;20815;-40
2022/09/08 03:57:26;;;;;;;;;;;23.60;62.00;;;;;;6247299;28;19934;-41
2022/09/08 04:00:28;;;;;;;;;;;23.50;62.00;;;;;;6246784;28;20043;-38
2022/09/08 04:03:30;;;;;;;;;;;23.60;62.20;;;;;;6250294;28;20222;-41
2022/09/08 04:06:31;;;;;;;;;;;23.80;62.20;;;;;;6255429;28;19935;-39
2022/09/08 04:09:32;;;;;;;;;;;23.30;61.90;;;;;;6255248;28;21164;-38
2022/09/08 04:12:34;;;;;;;;;;;23.70;62.20;;;;;;6254387;28;19946;-39
2022/09/08 04:15:38;;;;;;;;;;;23.70;62.10;;;;;;6248990;28;20032;-38
2022/09/08 04:18:39;;;;;;;;;;;23.20;61.80;;;;;;6253802;28;19928;-38
2022/09/08 04:21:41;;;;;;;;;;;23.70;62.20;;;;;;6245761;28;20160;-38
2022/09/08 04:24:43;;;;;;;;;;;23.40;62.10;;;;;;6251171;28;19924;-39
2022/09/08 04:27:44;;;;;;;;;;;23.70;62.20;;;;;;6252231;28;19929;-38
2022/09/08 04:30:46;;;;;;;;;;;23.40;62.10;;;;;;6248855;28;20051;-40
2022/09/08 04:33:47;;;;;;;;;;;23.70;62.20;;;;;;6248815;28;19932;-38
2022/09/08 04:36:49;;;;;;;;;;;23.70;62.20;;;;;;6249021;28;19928;-40
2022/09/08 04:39:50;;;;;;;;;;;23.60;63.00;;;;;;6246466;28;19924;-39
2022/09/08 04:42:51;;;;;;;;;;;23.30;62.20;;;;;;6247667;28;19928;-39
2022/09/08 04:45:53;;;;;;;;;;;23.20;62.10;;;;;;6249202;28;20821;-41
2022/09/08 04:48:55;;;;;;;;;;;23.40;62.20;;;;;;6243282;28;20760;-39
2022/09/08 04:51:56;;;;;;;;;;;23.70;62.20;;;;;;6250186;28;20040;-39
2022/09/08 04:54:59;;;;;;;;;;;23.80;62.50;;;;;;6251118;28;20058;-38
2022/09/08 04:58:00;;;;;;;;;;;23.70;62.50;;;;;;6249176;28;19932;-39
2022/09/08 05:01:03;;;;;;;;;;;23.50;62.40;;;;;;6250135;28;20039;-39
2022/09/08 05:04:05;;;;;;;;;;;23.60;62.30;;;;;;6243314;28;19928;-39
2022/09/08 05:07:06;;;;;;;;;;;23.80;62.50;;;;;;6247288;28;20079;-38
2022/09/08 05:10:08;;;;;;;;;;;23.30;62.20;;;;;;6249502;28;19932;-39
2022/09/08 05:13:09;;;;;;;;;;;23.30;62.30;;;;;;6252490;28;20118;-40
2022/09/08 05:16:12;;;;;;;;;;;23.70;62.40;;;;;;6245935;28;19939;-40
2022/09/08 05:19:13;;;;;;;;;;;23.70;62.50;;;;;;6251689;28;19932;-39
2022/09/08 05:22:15;;;;;;;;;;;23.20;62.20;;;;;;6247558;28;19959;-38
2022/09/08 05:25:19;;;;;;;;;;;23.70;62.50;;;;;;6251312;28;20103;-38
2022/09/08 05:28:20;;;;;;;;;;;23.40;62.30;;;;;;6251431;28;19967;-41
2022/09/08 05:31:23;;;;;;;;;;;23.20;62.40;;;;;;6249585;28;19924;-38
2022/09/08 05:34:25;;;;;;;;;;;23.60;62.50;;;;;;6253735;28;19955;-39
2022/09/08 05:37:27;;;;;;;;;;;23.80;62.60;;;;;;6247681;28;20066;-38
2022/09/08 05:40:29;;;;;;;;;;;23.80;62.50;;;;;;6246761;28;19967;-40
2022/09/08 05:43:30;;;;;;;;;;;23.30;62.40;;;;;;6249218;28;20937;-38
2022/09/08 05:46:32;;;;;;;;;;;23.60;62.50;;;;;;6240336;28;20173;-38
2022/09/08 05:49:37;;;;;;;;;;;23.70;62.60;;;;;;6241836;28;20489;-38
2022/09/08 05:52:38;;;;;;;;;;;23.40;62.30;;;;;;6242865;28;19924;-39
2022/09/08 05:55:42;;;;;;;;;;;23.30;62.40;;;;;;6238386;28;19935;-38
2022/09/08 05:58:44;;;;;;;;;;;23.60;62.60;;;;;;6239427;28;19989;-38
2022/09/08 06:01:46;;;;;;;;;;;23.50;62.50;;;;;;6220808;28;19938;-38
2022/09/08 06:04:47;;;;;;;;;;;23.70;62.70;;;;;;6237695;28;19979;-38
2022/09/08 06:07:49;;;;;;;;;;;23.70;62.70;;;;;;6238010;28;19982;-39
2022/09/08 06:10:51;;;;;;;;;;;23.20;62.30;;;;;;6230446;28;19936;-38
2022/09/08 06:13:52;;;;;;;;;;;23.30;62.30;;;;;;6218999;28;20052;-38
2022/09/08 06:16:54;;;;;;;;;;;23.60;62.50;;;;;;6211417;28;19932;-39
2022/09/08 06:19:56;;;;;;;;;;;23.40;62.30;;;;;;6224492;28;19932;-38
2022/09/08 06:22:57;;;;;;;;;;;23.70;62.50;;;;;;6201362;28;20018;-38
2022/09/08 06:26:13;;;;;;;;;;;23.70;62.60;;;;;;6197615;28;20010;-38
2022/09/08 06:29:16;;;;;;;;;;;23.70;62.30;;;;;;6206199;28;21034;-39
2022/09/08 06:32:22;;;;;;;;;;;23.90;62.40;;;;;;6200285;28;19932;-40
2022/09/08 06:35:27;;;;;;;;;;;23.50;62.00;;;;;;6199142;28;20005;-39
2022/09/08 06:38:32;;;;;;;;;;;23.70;62.20;;;;;;6192920;28;20073;-39
2022/09/08 06:41:39;;;;;;;;;;;23.40;61.80;;;;;;6182286;28;19975;-42
2022/09/08 06:44:41;;;;;;;;;;;23.90;62.10;;;;;;6201220;28;21117;-39
2022/09/08 06:47:47;;;;;;;;;;;23.70;62.10;;;;;;6181864;28;19939;-39
2022/09/08 06:50:55;;;;;;;;;;;23.80;62.20;;;;;;6147307;28;20017;-40
2022/09/08 06:54:05;;;;;;;;;;;23.70;62.10;;;;;;6170119;28;19986;-41
2022/09/08 06:57:11;;;;;;;;;;;23.80;62.10;;;;;;6157235;28;19939;-40
2022/09/08 07:00:36;;;;;;;;;;;23.80;62.10;;;;;;6127784;28;19947;-40
2022/09/08 07:03:45;;;;;;;;;;;23.70;61.90;;;;;;6106641;28;22052;-40
2022/09/08 07:06:49;;;;;;;;;;;23.80;62.00;;;;;;6122441;28;19936;-40
2022/09/08 07:09:54;;;;;;;;;;;23.40;61.70;;;;;;6116995;28;21270;-40
2022/09/08 07:13:01;;;;;;;;;;;23.70;61.90;;;;;;6069764;28;21154;-41
2022/09/08 07:16:06;;;;;;;;;;;24.00;62.10;;;;;;6087460;28;20382;-40
2022/09/08 07:19:14;;;;;;;;;;;24.00;62.00;;;;;;6101584;28;20972;-40
2022/09/08 07:22:30;;;;;;;;;;;24.40;62.20;;;;;;6101261;28;21355;-40
2022/09/08 07:25:34;;;;;;;;;;;23.80;61.70;;;;;;6090600;28;19932;-38
2022/09/08 07:28:40;;;;;;;;;;;23.60;61.60;;;;;;6114753;28;21094;-39
2022/09/08 07:31:44;;;;;;;;;;;23.80;61.70;;;;;;6088628;28;19932;-39
2022/09/08 07:34:50;;;;;;;;;;;24.00;61.80;;;;;;6070605;28;19932;-39
2022/09/08 07:37:53;;;;;;;;;;;23.60;61.50;;;;;;6048076;28;19932;-39
2022/09/08 07:40:56;;;;;;;;;;;24.10;61.60;;;;;;6075518;28;19970;-39
2022/09/08 07:43:59;;;;;;;;;;;24.00;61.80;;;;;;6086659;28;19932;-39
2022/09/08 07:47:08;;;;;;;;;;;24.10;62.00;;;;;;6082860;28;19932;-39
2022/09/08 07:50:15;;;;;;;;;;;23.90;61.60;;;;;;6079708;28;20044;-39
2022/09/08 07:53:23;;;;;;;;;;;24.30;61.80;;;;;;6074984;28;19977;-39
2022/09/08 07:56:32;;;;;;;;;;;23.50;61.40;;;;;;6098101;28;19939;-40
2022/09/08 07:59:56;;;;;;;;;;;24.00;61.70;;;;;;6059526;28;20994;-39
2022/09/08 08:03:08;;;;;;;;;;;24.00;62.50;;;;;;6013771;28;19932;-39
2022/09/08 08:06:13;;;;;;;;;;;24.00;61.90;;;;;;6021442;28;20031;-39
2022/09/08 08:09:27;;;;;;;;;;;24.00;61.80;;;;;;6057084;28;22184;-39
2022/09/08 08:12:32;;;;;;;;;;;24.00;62.10;;;;;;6028389;28;19932;-39
2022/09/08 08:15:37;;;;;;;;;;;24.00;62.00;;;;;;6051662;28;19940;-40
2022/09/08 08:18:46;;;;;;;;;;;24.10;62.00;;;;;;6058077;28;19933;-39
2022/09/08 08:21:51;;;;;;;;;;;23.60;61.70;;;;;;6038416;28;19932;-39
2022/09/08 08:25:03;;;;;;;;;;;24.20;62.00;;;;;;6060877;28;19932;-39
2022/09/08 08:28:12;;;;;;;;;;;24.00;61.70;;;;;;6072661;28;20160;-39
2022/09/08 08:31:24;;;;;;;;;;;24.20;61.80;;;;;;6071195;28;19936;-39
2022/09/08 08:34:27;;;;;;;;;;;24.00;61.80;;;;;;6063254;28;21191;-39
2022/09/08 08:37:31;;;;;;;;;;;24.00;61.80;;;;;;6046066;28;21006;-38
2022/09/08 08:40:40;;;;;;;;;;;24.30;61.80;;;;;;6010627;28;19946;-39
2022/09/08 08:43:50;;;;;;;;;;;24.20;61.80;;;;;;6060482;28;21205;-40
2022/09/08 08:47:06;;;;;;;;;;;23.80;61.30;;;;;;6085254;28;19932;-39
2022/09/08 08:50:15;;;;;;;;;;;24.10;61.80;;;;;;6083004;28;19936;-39
2022/09/08 08:53:30;;;;;;;;;;;24.00;61.70;;;;;;6095083;28;20059;-41
2022/09/08 08:56:57;;;;;;;;;;;24.20;61.40;;;;;;6066671;28;19941;-38
2022/09/08 09:00:08;;;;;;;;;;;23.90;61.60;;;;;;6073860;28;19939;-39
2022/09/08 09:03:15;;;;;;;;;;;24.20;61.70;;;;;;6064025;28;19932;-38
2022/09/08 09:06:37;;;;;;;;;;;24.00;61.50;;;;;;6065122;28;19932;-39
2022/09/08 09:09:49;;;;;;;;;;;23.90;61.40;;;;;;6096325;28;19933;-38
2022/09/08 09:12:58;;;;;;;;;;;24.10;61.70;;;;;;6100929;28;21000;-38
2022/09/08 09:16:09;;;;;;;;;;;24.70;61.90;;;;;;6143548;28;19940;-38
2022/09/08 09:19:29;;;;;;;;;;;24.10;61.60;;;;;;6136575;28;21740;-38
2022/09/08 09:22:36;;;;;;;;;;;24.70;61.80;;;;;;6149676;28;20009;-38
2022/09/08 09:25:42;;;;;;;;;;;24.00;61.50;;;;;;6143908;28;20161;-40
2022/09/08 09:28:55;;;;;;;;;;;24.30;61.60;;;;;;6149336;28;19932;-38
2022/09/08 09:32:04;;;;;;;;;;;23.80;61.20;;;;;;6066161;28;19932;-37
2022/09/08 09:35:18;;;;;;;;;;;24.20;61.60;;;;;;6027232;28;19932;-38
2022/09/08 09:38:27;;;;;;;;;;;24.10;61.40;;;;;;6079100;28;20674;-38
2022/09/08 09:41:35;;;;;;;;;;;24.30;61.40;;;;;;6075447;28;19932;-38
2022/09/08 09:44:48;;;;;;;;;;;23.80;61.20;;;;;;6039456;28;19939;-38
2022/09/08 09:47:59;;;;;;;;;;;24.30;61.40;;;;;;6069749;28;22465;-38
2022/09/08 09:51:08;;;;;;;;;;;24.20;61.30;;;;;;6072004;28;20376;-38
2022/09/08 09:54:17;;;;;;;;;;;24.10;61.10;;;;;;6081087;28;20055;-38
2022/09/08 09:57:33;;;;;;;;;;;24.30;61.30;;;;;;6084717;28;19932;-38
2022/09/08 10:00:49;;;;;;;;;;;24.40;61.20;;;;;;6073179;28;21651;-38
2022/09/08 10:04:03;;;;;;;;;;;24.30;61.20;;;;;;6066340;28;20058;-37
2022/09/08 10:07:13;;;;;;;;;;;24.40;61.20;;;;;;6061228;28;19939;-37
2022/09/08 10:10:24;;;;;;;;;;;24.30;61.30;;;;;;6054182;28;19932;-38
2022/09/08 10:13:40;;;;;;;;;;;24.40;61.00;;;;;;6073081;28;19932;-38
2022/09/08 10:16:51;;;;;;;;;;;24.30;60.90;;;;;;6110052;28;19932;-38
2022/09/08 10:20:03;;;;;;;;;;;24.10;60.80;;;;;;6114409;28;19939;-39
2022/09/08 10:23:20;;;;;;;;;;;24.10;60.90;;;;;;6127996;28;19932;-39
2022/09/08 10:26:34;;;;;;;;;;;24.50;61.00;;;;;;6132654;28;21995;-39
2022/09/08 10:29:45;;;;;;;;;;;24.20;60.70;;;;;;6143728;28;20828;-40
2022/09/08 10:33:02;;;;;;;;;;;24.50;60.90;;;;;;6134015;28;19939;-44
2022/09/08 10:36:06;;;;;;;;;;;24.30;60.80;;;;;;6140683;28;19932;-40
2022/09/08 10:39:19;;;;;;;;;;;24.10;60.60;;;;;;6119609;28;20858;-41
2022/09/08 10:42:36;;;;;;;;;;;24.90;61.00;;;;;;6147414;28;19940;-43
2022/09/08 10:45:52;;;;;;;;;;;24.60;60.70;;;;;;6143872;28;20542;-40
2022/09/08 10:49:10;;;;;;;;;;;24.40;60.60;;;;;;6166694;28;20866;-40
2022/09/08 10:52:24;;;;;;;;;;;24.60;60.70;;;;;;6165867;28;19932;-41
2022/09/08 10:55:40;;;;;;;;;;;24.70;60.70;;;;;;6187762;28;19932;-41
2022/09/08 10:58:56;;;;;;;;;;;24.60;60.70;;;;;;6163940;28;21773;-40
2022/09/08 11:02:08;;;;;;;;;;;24.40;60.40;;;;;;6170683;28;19932;-40
2022/09/08 11:05:24;;;;;;;;;;;24.60;60.60;;;;;;6150432;28;19970;-40
2022/09/08 11:08:37;;;;;;;;;;;24.50;60.50;;;;;;6164576;28;19932;-40
2022/09/08 11:11:49;;;;;;;;;;;24.20;60.40;;;;;;6175058;28;19932;-41
2022/09/08 11:15:04;;;;;;;;;;;24.30;60.30;;;;;;6173537;28;20798;-41
2022/09/08 11:18:20;;;;;;;;;;;24.70;60.70;;;;;;6178491;28;21274;-41
2022/09/08 11:21:24;;;;;;;;;;;24.70;60.60;;;;;;6146346;28;19932;-39
2022/09/08 11:24:30;;;;;;;;;;;24.70;60.80;;;;;;6157388;28;19932;-39
2022/09/08 11:27:37;;;;;;;;;;;24.60;60.60;;;;;;6173368;28;20129;-40
2022/09/08 11:30:43;;;;;;;;;;;24.30;60.40;;;;;;6169574;28;21063;-42
2022/09/08 11:33:55;;;;;;;;;;;24.60;60.60;;;;;;6174715;28;19931;-40
2022/09/08 11:37:07;;;;;;;;;;;24.20;60.40;;;;;;6170738;28;20055;-40
2022/09/08 11:40:24;;;;;;;;;;;24.50;60.50;;;;;;6132006;28;20422;-41
2022/09/08 11:43:29;;;;;;;;;;;24.70;60.50;;;;;;6111549;28;19932;-39
2022/09/08 11:46:44;;;;;;;;;;;24.50;60.50;;;;;;6104289;28;19932;-41
2022/09/08 11:49:58;;;;;;;;;;;24.40;60.40;;;;;;6093858;28;20915;-43
2022/09/08 11:53:35;;;;;;;;;;;24.70;60.50;;;;;;6098186;28;21408;-40
2022/09/08 11:57:12;;;;;;;;;;;24.40;60.30;;;;;;6081810;28;20882;-40
2022/09/08 12:00:24;;;;;;;;;;;24.70;60.50;;;;;;6082907;28;20773;-39
2022/09/08 12:03:36;;;;;;;;;;;25.30;60.80;;;;;;6062686;28;19939;-40
2022/09/08 12:06:43;;;;;;;;;;;24.70;60.60;;;;;;6065613;28;19976;-41
2022/09/08 12:09:52;;;;;;;;;;;24.90;60.50;;;;;;6076384;28;19940;-41
2022/09/08 12:12:59;;;;;;;;;;;24.20;60.20;;;;;;6063993;28;20016;-42
2022/09/08 12:16:07;;;;;;;;;;;24.80;60.50;;;;;;6073583;28;19939;-40
2022/09/08 12:19:22;;;;;;;;;;;24.80;60.50;;;;;;6078937;28;22661;-41
2022/09/08 12:22:32;;;;;;;;;;;24.90;60.60;;;;;;6028421;28;19939;-41
2022/09/08 12:25:40;;;;;;;;;;;24.50;60.20;;;;;;6038787;28;19939;-41
2022/09/08 12:29:13;;;;;;;;;;;24.90;60.60;;;;;;6023645;28;19932;-41
2022/09/08 12:32:25;;;;;;;;;;;24.70;60.50;;;;;;6001670;28;21428;-41
2022/09/08 12:35:30;;;;;;;;;;;24.70;60.40;;;;;;6011266;28;20024;-41
2022/09/08 12:38:48;;;;;;;;;;;24.80;60.40;;;;;;6023679;28;20065;-40
2022/09/08 12:42:00;;;;;;;;;;;24.60;60.20;;;;;;6029532;28;19932;-40
2022/09/08 12:45:12;;;;;;;;;;;24.70;60.20;;;;;;6048222;28;19933;-41
2022/09/08 12:48:20;;;;;;;;;;;24.90;60.60;;;;;;6020226;28;19932;-41
2022/09/08 12:51:24;;;;;;;;;;;24.90;60.40;;;;;;6040586;28;21777;-41
2022/09/08 12:54:35;;;;;;;;;;;25.30;60.60;;;;;;6041112;28;20202;-40
2022/09/08 12:57:46;;;;;;;;;;;24.50;60.20;;;;;;5999458;28;22089;-42
2022/09/08 13:00:53;;;;;;;;;;;25.00;60.40;;;;;;6055630;28;19936;-39
2022/09/08 13:03:57;;;;;;;;;;;24.90;60.30;;;;;;6018056;28;20120;-40
2022/09/08 13:07:08;;;;;;;;;;;25.00;60.40;;;;;;6018025;28;19939;-41
2022/09/08 13:10:17;;;;;;;;;;;24.90;60.40;;;;;;6036108;28;21405;-41
2022/09/08 13:13:31;;;;;;;;;;;25.00;60.30;;;;;;5989930;28;19938;-41
2022/09/08 13:16:39;;;;;;;;;;;25.10;60.40;;;;;;6021764;28;20084;-41
2022/09/08 13:19:55;;;;;;;;;;;25.00;60.30;;;;;;6023163;28;20732;-40
2022/09/08 13:23:01;;;;;;;;;;;24.60;60.10;;;;;;6028927;28;19932;-40
2022/09/08 13:26:10;;;;;;;;;;;25.20;60.50;;;;;;6047352;28;19947;-42
2022/09/08 13:29:19;;;;;;;;;;;24.90;60.20;;;;;;6004530;28;21096;-44
2022/09/08 13:32:53;;;;;;;;;;;25.70;60.90;;;;;;5981161;28;20051;-43
2022/09/08 13:36:03;;;;;;;;;;;24.80;60.10;;;;;;6020615;28;19932;-40
2022/09/08 13:39:20;;;;;;;;;;;25.00;60.10;;;;;;6017024;28;19933;-40
2022/09/08 13:42:30;;;;;;;;;;;24.90;60.10;;;;;;6043796;28;19932;-42
2022/09/08 13:45:42;;;;;;;;;;;25.10;60.20;;;;;;6020042;28;19936;-41
2022/09/08 13:48:51;;;;;;;;;;;24.90;60.20;;;;;;6027068;28;20237;-40
2022/09/08 13:51:59;;;;;;;;;;;25.00;59.80;;;;;;5994978;28;20420;-40
2022/09/08 13:55:16;;;;;;;;;;;24.90;60.10;;;;;;6043958;28;20004;-39
2022/09/08 13:58:28;;;;;;;;;;;25.10;60.30;;;;;;6027055;28;20386;-41
2022/09/08 14:01:34;;;;;;;;;;;25.20;60.30;;;;;;6005489;28;19939;-40
2022/09/08 14:04:38;;;;;;;;;;;25.00;60.30;;;;;;5995173;28;20044;-42
2022/09/08 14:07:43;;;;;;;;;;;24.90;60.20;;;;;;6026698;28;20480;-40
2022/09/08 14:10:51;;;;;;;;;;;24.70;60.00;;;;;;6028785;28;19939;-41
2022/09/08 14:14:02;;;;;;;;;;;25.00;60.40;;;;;;6041673;28;20858;-40
2022/09/08 14:17:11;;;;;;;;;;;25.10;60.30;;;;;;6052277;28;21124;-41
2022/09/08 14:20:18;;;;;;;;;;;24.90;60.10;;;;;;6054991;28;19975;-41
2022/09/08 14:23:29;;;;;;;;;;;24.50;60.60;;;;;;6040705;28;19959;-40
2022/09/08 14:26:38;;;;;;;;;;;25.10;60.30;;;;;;6052859;28;19932;-41
2022/09/08 14:29:46;;;;;;;;;;;25.10;60.20;;;;;;6062277;28;19932;-40
2022/09/08 14:32:58;;;;;;;;;;;24.60;60.00;;;;;;6067999;28;20249;-40
2022/09/08 14:36:13;;;;;;;;;;;24.90;60.10;;;;;;6048538;28;21516;-41
2022/09/08 14:39:23;;;;;;;;;;;24.90;60.10;;;;;;6072545;28;21404;-42
2022/09/08 14:42:27;;;;;;;;;;;25.10;60.30;;;;;;6068294;28;20070;-41
2022/09/08 14:45:32;;;;;;;;;;;25.90;60.90;;;;;;5990151;28;20104;-40
2022/09/08 14:48:37;;;;;;;;;;;24.80;60.10;;;;;;6026507;28;19933;-43
2022/09/08 14:51:45;;;;;;;;;;;25.10;60.20;;;;;;6024142;28;19974;-42
2022/09/08 14:54:52;;;;;;;;;;;25.00;60.20;;;;;;6047827;28;19932;-42
2022/09/08 14:57:55;;;;;;;;;;;25.10;60.30;;;;;;6039615;28;19932;-45
2022/09/08 15:18:20;;;;;;;;;;;24.50;59.40;;;;;;5987454;28;19936;-37
2022/09/08 15:21:23;;;;;;;;;;;25.00;60.00;;;;;;6119417;28;19932;-36
2022/09/08 15:24:48;;;;;;;;;;;25.10;60.00;;;;;;6032890;28;19939;-42
2022/09/08 15:27:51;;;;;;;;;;;25.10;59.90;;;;;;6038860;28;20018;-42
2022/09/08 15:31:07;;;;;;;;;;;25.10;60.00;;;;;;6048376;28;19938;-36
2022/09/08 15:34:16;;;;;;;;;;;25.20;60.00;;;;;;6045660;28;20833;-36
2022/09/08 15:37:25;;;;;;;;;;;25.20;59.90;;;;;;6048289;28;20066;-38
2022/09/08 15:40:27;;;;;;;;;;;24.90;59.50;;;;;;6060884;28;21630;-35
2022/09/08 15:43:32;;;;;;;;;;;25.60;59.90;;;;;;6085947;28;19939;-39
2022/09/08 15:46:36;;;;;;;;;;;25.10;59.50;;;;;;6107988;28;20753;-36
2022/09/08 15:49:46;;;;;;;;;;;25.40;59.70;;;;;;6101149;28;19932;-37
2022/09/08 15:52:57;;;;;;;;;;;25.10;59.60;;;;;;6100375;28;19932;-46
2022/09/08 15:56:10;;;;;;;;;;;25.30;59.50;;;;;;6091408;28;19932;-46
2022/09/08 15:59:26;;;;;;;;;;;25.10;59.40;;;;;;6097283;28;19933;-42
2022/09/08 16:02:35;;;;;;;;;;;25.20;59.40;;;;;;6061752;28;19939;-42
2022/09/08 16:05:42;;;;;;;;;;;25.10;59.10;;;;;;6088677;28;21106;-40
2022/09/08 16:08:49;;;;;;;;;;;25.10;59.10;;;;;;6119431;28;19932;-41
2022/09/08 16:11:57;;;;;;;;;;;25.10;59.10;;;;;;6133976;28;19935;-41
2022/09/08 16:15:01;;;;;;;;;;;25.00;59.10;;;;;;6110442;28;19938;-42
2022/09/08 16:18:06;;;;;;;;;;;25.10;59.20;;;;;;6140574;28;20161;-39
2022/09/08 16:21:12;;;;;;;;;;;25.10;59.20;;;;;;6134980;28;19932;-42
2022/09/08 16:24:28;;;;;;;;;;;25.10;59.20;;;;;;6154280;28;19939;-45
2022/09/08 16:27:40;;;;;;;;;;;25.00;59.20;;;;;;6151775;28;19937;-43
2022/09/08 16:30:56;;;;;;;;;;;25.10;59.20;;;;;;6171442;28;19940;-43
2022/09/08 16:34:13;;;;;;;;;;;25.00;59.10;;;;;;6175424;28;19932;-47
2022/09/08 16:37:24;;;;;;;;;;;24.90;59.10;;;;;;6171320;28;19932;-43
2022/09/08 16:40:26;;;;;;;;;;;25.00;59.10;;;;;;6174713;28;19932;-44
2022/09/08 16:43:28;;;;;;;;;;;24.90;59.00;;;;;;6185106;28;21062;-43
2022/09/08 16:46:35;;;;;;;;;;;25.30;59.30;;;;;;6197380;28;19932;-48
2022/09/08 16:49:39;;;;;;;;;;;25.20;59.20;;;;;;6182041;28;20068;-44
2022/09/08 16:52:44;;;;;;;;;;;24.90;59.00;;;;;;6207549;28;19928;-42
2022/09/08 16:55:51;;;;;;;;;;;24.90;59.60;;;;;;6212813;28;19981;-45
2022/09/08 16:59:00;;;;;;;;;;;25.00;59.10;;;;;;6191635;28;19933;-43
2022/09/08 17:02:10;;;;;;;;;;;25.00;59.10;;;;;;6211864;28;19933;-44
2022/09/08 17:05:27;;;;;;;;;;;25.00;59.10;;;;;;6213485;28;19939;-46
2022/09/08 17:08:40;;;;;;;;;;;25.00;59.10;;;;;;6202943;28;20092;-45
2022/09/08 17:11:43;;;;;;;;;;;24.90;59.00;;;;;;6211491;28;20899;-41
2022/09/08 17:14:47;;;;;;;;;;;25.00;59.00;;;;;;6210835;28;20009;-45
2022/09/08 17:18:04;;;;;;;;;;;25.00;59.10;;;;;;6223203;28;19938;-43
2022/09/08 17:21:14;;;;;;;;;;;24.90;59.00;;;;;;6221069;28;22026;-44
2022/09/08 17:24:24;;;;;;;;;;;24.90;59.00;;;;;;6215728;28;20895;-43
2022/09/08 17:27:36;;;;;;;;;;;24.90;59.00;;;;;;6198079;28;20001;-43
2022/09/08 17:30:41;;;;;;;;;;;25.00;59.10;;;;;;6197814;28;20552;-45
2022/09/08 17:34:04;;;;;;;;;;;25.20;59.10;;;;;;6197851;28;20886;-43
2022/09/08 17:37:10;;;;;;;;;;;24.90;58.90;;;;;;6199052;28;20524;-42
2022/09/08 17:40:21;;;;;;;;;;;24.80;58.90;;;;;;6191196;28;20369;-41
2022/09/08 17:43:27;;;;;;;;;;;24.80;58.80;;;;;;6174823;28;20372;-43
2022/09/08 17:46:35;;;;;;;;;;;24.80;58.90;;;;;;6202974;28;19955;-47
2022/09/08 17:49:39;;;;;;;;;;;24.70;58.80;;;;;;6207055;28;20448;-42
2022/09/08 17:52:47;;;;;;;;;;;25.10;59.00;;;;;;6205053;28;20221;-43
2022/09/08 17:55:59;;;;;;;;;;;24.90;58.90;;;;;;6205164;28;19932;-43
2022/09/08 17:59:09;;;;;;;;;;;25.10;59.00;;;;;;6210497;28;20122;-44
2022/09/08 18:02:26;;;;;;;;;;;24.90;58.90;;;;;;6208373;28;20286;-42
2022/09/08 18:05:29;;;;;;;;;;;24.80;58.80;;;;;;6209523;28;19935;-42
2022/09/08 18:08:33;;;;;;;;;;;24.80;58.80;;;;;;6189727;28;20043;-43
2022/09/08 18:11:39;;;;;;;;;;;24.70;58.70;;;;;;6218323;28;20412;-43
2022/09/08 18:14:48;;;;;;;;;;;25.10;59.00;;;;;;6218928;28;20806;-41
2022/09/08 18:17:55;;;;;;;;;;;24.80;58.80;;;;;;6206827;28;19932;-45
2022/09/08 18:21:04;;;;;;;;;;;24.90;58.80;;;;;;6230075;28;20992;-45
2022/09/08 18:24:12;;;;;;;;;;;24.80;58.70;;;;;;6227377;28;19954;-43
2022/09/08 18:27:32;;;;;;;;;;;24.70;58.70;;;;;;6224466;28;20116;-45
2022/09/08 18:30:35;;;;;;;;;;;24.70;58.70;;;;;;6227311;28;19932;-43
2022/09/08 18:33:47;;;;;;;;;;;24.90;59.40;;;;;;6224885;28;19939;-43
2022/09/08 18:36:53;;;;;;;;;;;24.90;58.80;;;;;;6223546;28;19932;-43